createdAt,value
2023-05-17T00:00:27.262Z,14.16
2023-05-17T00:02:55.109Z,14.17
2023-05-17T00:05:23.510Z,14.17
2023-05-17T00:07:51.590Z,14.18
2023-05-17T00:10:19.572Z,14.14
2023-05-17T00:12:48.016Z,14.16
2023-05-17T00:15:15.851Z,14.15
2023-05-17T00:17:45.075Z,14.17
2023-05-17T00:20:14.351Z,14.15
2023-05-17T00:22:43.291Z,14.11
2023-05-17T00:25:11.122Z,14.11
2023-05-17T00:27:39.581Z,14.10
2023-05-17T00:30:09.628Z,14.10
2023-05-17T00:32:37.511Z,14.10
2023-05-17T00:35:08.171Z,14.10
2023-05-17T00:37:36.043Z,14.08
2023-05-17T00:40:04.305Z,14.06
2023-05-17T00:42:32.464Z,14.06
2023-05-17T00:45:00.292Z,14.06
2023-05-17T00:47:28.244Z,14.06
2023-05-17T00:49:56.653Z,14.06
2023-05-17T00:52:25.925Z,14.09
2023-05-17T00:54:54.010Z,14.05
2023-05-17T00:57:22.519Z,14.04
2023-05-17T00:59:50.685Z,14.03
2023-05-17T01:02:18.981Z,14.02
2023-05-17T01:07:40.384Z,13.97
2023-05-17T01:10:09.780Z,13.96
2023-05-17T01:12:48.509Z,13.94
2023-05-17T01:15:23.295Z,13.91
2023-05-17T01:18:00.491Z,13.91
2023-05-17T01:20:30.617Z,13.91
2023-05-17T01:23:16.293Z,13.90
2023-05-17T01:25:54.115Z,13.88
2023-05-17T01:28:26.364Z,13.87
2023-05-17T01:30:57.091Z,13.88
2023-05-17T01:33:25.527Z,13.83
2023-05-17T01:35:54.025Z,13.82
2023-05-17T01:38:21.915Z,13.84
2023-05-17T01:41:00.246Z,13.86
2023-05-17T01:43:36.806Z,13.82
2023-05-17T01:46:14.552Z,13.85
2023-05-17T01:48:48.951Z,13.88
2023-05-17T01:51:21.489Z,13.91
2023-05-17T01:53:52.882Z,13.91
2023-05-17T01:56:23.555Z,13.93
2023-05-17T01:58:53.999Z,13.97
2023-05-17T02:01:24.478Z,13.96
2023-05-17T02:03:52.400Z,13.99
2023-05-17T02:06:20.232Z,13.99
2023-05-17T02:08:48.892Z,14.00
2023-05-17T02:11:16.742Z,14.02
2023-05-17T02:13:44.555Z,14.02
2023-05-17T02:16:14.181Z,14.03
2023-05-17T02:18:41.840Z,14.07
2023-05-17T02:21:09.736Z,14.05
2023-05-17T02:23:38.589Z,14.04
2023-05-17T02:26:06.445Z,13.99
2023-05-17T02:28:34.296Z,13.98
2023-05-17T02:31:02.693Z,13.95
2023-05-17T02:33:31.995Z,13.93
2023-05-17T02:35:59.865Z,13.89
2023-05-17T02:38:28.246Z,13.89
2023-05-17T02:40:56.076Z,13.86
2023-05-17T02:43:24.189Z,13.83
2023-05-17T02:45:52.522Z,13.80
2023-05-17T02:48:20.424Z,13.78
2023-05-17T02:50:49.631Z,13.76
2023-05-17T02:53:17.892Z,13.73
2023-05-17T02:55:45.725Z,13.71
2023-05-17T02:58:13.535Z,13.69
2023-05-17T03:00:41.902Z,13.67
2023-05-17T03:03:09.798Z,13.65
2023-05-17T03:05:37.695Z,13.63
2023-05-17T03:08:08.534Z,13.61
2023-05-17T03:10:36.435Z,13.59
2023-05-17T03:13:04.253Z,13.56
2023-05-17T03:15:32.701Z,13.53
2023-05-17T03:18:00.693Z,13.51
2023-05-17T03:20:28.774Z,13.48
2023-05-17T03:22:57.034Z,13.45
2023-05-17T03:25:26.263Z,13.43
2023-05-17T03:27:54.155Z,13.39
2023-05-17T03:30:22.692Z,13.38
2023-05-17T03:32:50.687Z,13.35
2023-05-17T03:35:18.557Z,13.32
2023-05-17T03:37:46.893Z,13.30
2023-05-17T03:40:14.846Z,13.27
2023-05-17T03:42:44.045Z,13.25
2023-05-17T03:45:13.460Z,13.19
2023-05-17T03:47:43.139Z,13.17
2023-05-17T03:50:11.140Z,13.23
2023-05-17T03:52:39.688Z,13.18
2023-05-17T03:55:07.815Z,13.13
2023-05-17T03:57:35.654Z,13.11
2023-05-17T04:00:09.274Z,13.09
2023-05-17T04:02:37.217Z,13.06
2023-05-17T04:05:05.617Z,13.05
2023-05-17T04:07:34.098Z,13.03
2023-05-17T04:10:02.960Z,13.01
2023-05-17T04:12:30.798Z,13.01
2023-05-17T04:14:59.116Z,13.01
2023-05-17T04:17:29.811Z,13.01
2023-05-17T04:19:57.795Z,13.00
2023-05-17T04:22:26.135Z,13.00
2023-05-17T04:24:53.944Z,13.00
2023-05-17T04:27:22.648Z,12.99
2023-05-17T04:29:50.533Z,12.99
2023-05-17T04:32:18.959Z,13.00
2023-05-17T04:34:48.157Z,12.99
2023-05-17T04:37:16.674Z,12.99
2023-05-17T04:39:44.484Z,12.98
2023-05-17T04:42:12.530Z,13.00
2023-05-17T04:44:40.958Z,13.01
2023-05-17T04:47:09.221Z,13.00
2023-05-17T04:49:37.346Z,13.01
2023-05-17T04:52:07.739Z,13.02
2023-05-17T04:54:35.601Z,13.02
2023-05-17T04:57:05.035Z,13.05
2023-05-17T04:59:33.242Z,13.05
2023-05-17T05:02:01.090Z,13.05
2023-05-17T05:04:28.927Z,13.07
2023-05-17T05:06:57.271Z,13.08
2023-05-17T05:09:26.458Z,13.08
2023-05-17T05:11:54.381Z,13.09
2023-05-17T05:14:22.302Z,13.10
2023-05-17T05:16:50.130Z,13.14
2023-05-17T05:19:18.034Z,13.18
2023-05-17T05:21:46.590Z,13.22
2023-05-17T05:24:14.497Z,13.26
2023-05-17T05:26:44.776Z,13.31
2023-05-17T05:29:12.813Z,13.35
2023-05-17T05:31:40.656Z,13.37
2023-05-17T05:34:08.740Z,13.43
2023-05-17T05:36:36.659Z,13.48
2023-05-17T05:39:04.888Z,13.53
2023-05-17T05:41:33.069Z,13.57
2023-05-17T05:44:02.361Z,13.63
2023-05-17T05:46:30.183Z,13.67
2023-05-17T05:48:58.164Z,13.73
2023-05-17T05:51:26.089Z,13.77
2023-05-17T05:53:53.879Z,13.84
2023-05-17T05:56:21.648Z,13.90
2023-05-17T05:58:49.736Z,13.96
2023-05-17T06:01:18.918Z,14.03
2023-05-17T06:03:46.771Z,14.07
2023-05-17T06:06:16.827Z,14.13
2023-05-17T06:08:45.738Z,14.18
2023-05-17T06:11:13.535Z,14.24
2023-05-17T06:13:41.501Z,14.29
2023-05-17T06:16:09.304Z,14.30
2023-05-17T06:18:38.557Z,14.37
2023-05-17T06:21:06.557Z,14.36
2023-05-17T06:23:34.456Z,14.39
2023-05-17T06:26:02.527Z,14.41
2023-05-17T06:28:30.497Z,14.45
2023-05-17T06:30:58.512Z,14.44
2023-05-17T06:33:26.453Z,14.46
2023-05-17T06:35:57.788Z,14.46
2023-05-17T06:38:27.681Z,14.44
2023-05-17T06:40:57.495Z,14.47
2023-05-17T06:43:25.652Z,14.50
2023-05-17T06:45:53.726Z,14.54
2023-05-17T06:48:21.974Z,14.54
2023-05-17T06:50:49.946Z,14.61
2023-05-17T06:53:19.375Z,14.65
2023-05-17T06:55:47.226Z,14.70
2023-05-17T06:58:15.084Z,14.77
2023-05-17T07:00:43.207Z,14.79
2023-05-17T07:03:11.548Z,14.84
2023-05-17T07:05:39.565Z,14.89
2023-05-17T07:08:07.433Z,15.01
2023-05-17T07:10:36.740Z,15.11
2023-05-17T07:13:04.569Z,15.19
2023-05-17T07:15:32.551Z,15.22
2023-05-17T07:18:00.756Z,15.32
2023-05-17T07:20:28.809Z,15.41
2023-05-17T07:22:57.152Z,15.42
2023-05-17T07:25:25.186Z,15.51
2023-05-17T07:27:54.746Z,15.63
2023-05-17T07:30:25.396Z,15.70
2023-05-17T07:32:55.251Z,15.68
2023-05-17T07:35:23.479Z,15.68
2023-05-17T07:37:51.419Z,15.67
2023-05-17T07:40:19.555Z,15.75
2023-05-17T07:42:47.420Z,15.75
2023-05-17T07:45:16.961Z,15.70
2023-05-17T07:47:44.927Z,15.80
2023-05-17T07:50:13.481Z,15.80
2023-05-17T07:52:41.332Z,15.88
2023-05-17T07:55:10.148Z,15.84
2023-05-17T07:57:38.049Z,15.94
2023-05-17T08:00:11.427Z,16.10
2023-05-17T08:02:41.252Z,16.26
2023-05-17T08:05:09.880Z,16.38
2023-05-17T08:07:37.761Z,16.51
2023-05-17T08:10:08.776Z,16.58
2023-05-17T08:12:36.670Z,16.57
2023-05-17T08:15:04.873Z,16.70
2023-05-17T08:17:32.829Z,16.72
2023-05-17T08:20:02.114Z,16.78
2023-05-17T08:22:30.010Z,16.85
2023-05-17T08:24:58.067Z,16.98
2023-05-17T08:27:27.078Z,17.08
2023-05-17T08:29:57.692Z,17.20
2023-05-17T08:32:26.128Z,17.32
2023-05-17T08:34:54.619Z,17.41
2023-05-17T08:37:24.467Z,17.48
2023-05-17T08:39:52.499Z,17.49
2023-05-17T08:42:25.588Z,17.47
2023-05-17T08:44:54.893Z,17.44
2023-05-17T08:47:29.969Z,17.43
2023-05-17T08:50:00.430Z,17.34
2023-05-17T08:52:32.787Z,17.29
2023-05-17T08:55:06.066Z,17.24
2023-05-17T08:57:36.444Z,17.28
2023-05-17T09:00:12.864Z,17.26
2023-05-17T09:02:41.216Z,17.27
2023-05-17T09:05:11.074Z,17.30
2023-05-17T09:07:40.793Z,17.29
2023-05-17T09:10:09.051Z,17.35
2023-05-17T09:12:37.221Z,17.44
2023-05-17T09:15:27.239Z,17.42
2023-05-17T09:17:55.746Z,17.56
2023-05-17T09:20:25.295Z,17.59
2023-05-17T09:22:54.533Z,17.67
2023-05-17T09:25:24.812Z,17.69
2023-05-17T09:27:53.769Z,17.73
2023-05-17T09:30:28.793Z,17.56
2023-05-17T09:32:57.783Z,17.63
2023-05-17T09:35:30.337Z,17.66
2023-05-17T09:38:07.200Z,17.62
2023-05-17T09:40:35.410Z,17.50
2023-05-17T09:43:03.292Z,17.57
2023-05-17T09:45:33.020Z,17.58
2023-05-17T09:48:11.911Z,17.58
2023-05-17T09:50:45.455Z,17.71
2023-05-17T09:53:31.760Z,17.77
2023-05-17T09:56:01.531Z,17.80
2023-05-17T09:58:33.009Z,17.85
2023-05-17T10:01:03.703Z,17.87
2023-05-17T10:03:33.489Z,17.90
2023-05-17T10:06:03.865Z,17.98
2023-05-17T10:08:33.932Z,17.96
2023-05-17T10:11:06.675Z,17.85
2023-05-17T10:13:38.775Z,17.91
2023-05-17T10:16:07.307Z,17.86
2023-05-17T10:18:35.993Z,17.96
2023-05-17T10:21:04.808Z,18.09
2023-05-17T10:23:34.669Z,17.96
2023-05-17T10:26:03.297Z,18.19
2023-05-17T10:28:32.217Z,18.33
2023-05-17T10:31:00.921Z,18.35
2023-05-17T10:33:29.148Z,18.34
2023-05-17T10:35:57.609Z,18.51
2023-05-17T10:38:31.945Z,18.38
2023-05-17T10:41:05.482Z,18.41
2023-05-17T10:43:34.956Z,18.48
2023-05-17T10:46:04.461Z,18.64
2023-05-17T10:48:32.216Z,18.69
2023-05-17T10:51:07.863Z,18.75
2023-05-17T10:53:55.884Z,18.62
2023-05-17T10:56:25.544Z,18.45
2023-05-17T10:59:08.909Z,18.40
2023-05-17T11:02:00.037Z,18.52
2023-05-17T11:04:33.836Z,18.59
2023-05-17T11:07:32.159Z,18.57
2023-05-17T11:10:12.591Z,18.72
2023-05-17T11:12:44.634Z,18.66
2023-05-17T11:15:15.323Z,18.70
2023-05-17T11:17:51.607Z,18.67
2023-05-17T11:20:36.838Z,18.79
2023-05-17T11:23:06.870Z,18.92
2023-05-17T11:25:36.349Z,18.94
2023-05-17T11:28:20.012Z,19.04
2023-05-17T11:30:51.860Z,19.15
2023-05-17T11:33:32.412Z,19.15
2023-05-17T11:36:06.531Z,19.27
2023-05-17T11:38:34.695Z,19.14
2023-05-17T11:43:52.301Z,19.27
2023-05-17T11:46:21.731Z,19.36
2023-05-17T11:48:51.949Z,19.25
2023-05-17T11:51:23.819Z,19.29
2023-05-17T11:53:55.661Z,19.31
2023-05-17T11:56:35.521Z,19.32
2023-05-17T11:59:12.185Z,19.11
2023-05-17T12:01:44.400Z,19.29
2023-05-17T12:04:12.317Z,19.35
2023-05-17T12:06:40.808Z,19.33
2023-05-17T12:09:11.097Z,19.40
2023-05-17T12:11:39.557Z,19.49
2023-05-17T12:14:07.812Z,19.36
2023-05-17T12:16:38.003Z,19.42
2023-05-17T12:19:06.049Z,19.48
2023-05-17T12:21:34.747Z,19.45
2023-05-17T12:24:02.709Z,19.51
2023-05-17T12:26:30.473Z,19.53
2023-05-17T12:28:59.768Z,19.37
2023-05-17T12:31:30.971Z,19.38
2023-05-17T12:34:02.429Z,19.36
2023-05-17T12:36:31.880Z,19.50
2023-05-17T12:38:59.915Z,19.45
2023-05-17T12:41:28.458Z,19.56
2023-05-17T12:44:06.338Z,19.60
2023-05-17T12:46:42.256Z,19.72
2023-05-17T12:49:12.335Z,19.60
2023-05-17T12:51:44.221Z,19.63
2023-05-17T12:54:13.075Z,19.83
2023-05-17T12:56:44.083Z,19.76
2023-05-17T12:59:14.086Z,19.78
2023-05-17T13:01:44.242Z,19.90
2023-05-17T13:04:14.333Z,19.89
2023-05-17T13:06:46.954Z,19.74
2023-05-17T13:09:15.758Z,19.90
2023-05-17T13:11:43.625Z,19.93
2023-05-17T13:14:12.626Z,19.83
2023-05-17T13:16:41.467Z,19.88
2023-05-17T13:19:16.888Z,19.95
2023-05-17T13:21:45.080Z,19.77
2023-05-17T13:24:12.934Z,19.61
2023-05-17T13:26:40.750Z,19.62
2023-05-17T13:29:08.875Z,19.58
2023-05-17T13:31:36.699Z,19.63
2023-05-17T13:34:04.630Z,19.56
2023-05-17T13:36:34.022Z,19.64
2023-05-17T13:39:02.354Z,19.49
2023-05-17T13:41:30.368Z,19.60
2023-05-17T13:43:58.559Z,19.39
2023-05-17T13:46:26.419Z,19.57
2023-05-17T13:48:54.488Z,19.56
2023-05-17T13:51:22.498Z,19.56
2023-05-17T13:53:51.773Z,19.62
2023-05-17T13:56:19.674Z,19.46
2023-05-17T13:58:48.189Z,19.53
2023-05-17T14:01:16.139Z,19.44
2023-05-17T14:03:44.006Z,19.49
2023-05-17T14:06:12.097Z,19.39
2023-05-17T14:08:40.510Z,19.36
2023-05-17T14:11:09.736Z,19.33
2023-05-17T14:13:37.670Z,19.30
2023-05-17T14:16:06.195Z,19.28
2023-05-17T14:18:34.140Z,19.26
2023-05-17T14:21:03.626Z,19.35
2023-05-17T14:23:31.464Z,19.33
2023-05-17T14:25:59.284Z,19.49
2023-05-17T14:28:28.702Z,19.64
2023-05-17T14:30:56.523Z,19.38
2023-05-17T14:33:24.477Z,19.67
2023-05-17T14:35:52.439Z,19.70
2023-05-17T14:38:22.339Z,19.66
2023-05-17T14:40:50.228Z,19.73
2023-05-17T14:43:19.617Z,19.58
2023-05-17T14:45:48.899Z,19.49
2023-05-17T14:48:16.816Z,19.44
2023-05-17T14:50:44.896Z,19.47
2023-05-17T14:53:13.127Z,19.45
2023-05-17T14:55:41.872Z,19.45
2023-05-17T14:58:11.697Z,19.41
2023-05-17T15:00:41.591Z,19.30
2023-05-17T15:03:10.951Z,19.39
2023-05-17T15:05:39.018Z,19.50
2023-05-17T15:08:07.186Z,19.49
2023-05-17T15:10:35.320Z,19.56
2023-05-17T15:13:03.186Z,19.63
2023-05-17T15:15:31.349Z,19.76
2023-05-17T15:18:00.389Z,19.86
2023-05-17T15:20:30.151Z,19.97
2023-05-17T15:22:58.049Z,20.04
2023-05-17T15:25:25.885Z,19.83
2023-05-17T15:27:53.699Z,19.98
2023-05-17T15:30:27.005Z,19.58
2023-05-17T15:32:54.973Z,19.76
2023-05-17T15:35:23.135Z,19.73
2023-05-17T15:37:53.645Z,19.63
2023-05-17T15:40:22.534Z,19.67
2023-05-17T15:42:52.177Z,19.50
2023-05-17T15:45:21.561Z,19.29
2023-05-17T15:47:50.246Z,19.18
2023-05-17T15:50:18.253Z,19.07
2023-05-17T15:52:47.347Z,19.06
2023-05-17T15:55:17.018Z,19.12
2023-05-17T15:57:44.634Z,19.06
2023-05-17T16:00:13.589Z,19.15
2023-05-17T16:02:41.485Z,19.08
2023-05-17T16:05:10.182Z,19.09
2023-05-17T16:07:38.196Z,18.88
2023-05-17T16:10:06.795Z,18.98
2023-05-17T16:12:36.721Z,19.04
2023-05-17T16:15:04.844Z,19.06
2023-05-17T16:17:32.719Z,18.95
2023-05-17T16:20:01.019Z,19.03
2023-05-17T16:22:29.071Z,19.09
2023-05-17T16:24:57.068Z,18.95
2023-05-17T16:27:24.946Z,19.00
2023-05-17T16:29:54.149Z,19.00
2023-05-17T16:32:22.377Z,18.89
2023-05-17T16:34:50.215Z,18.93
2023-05-17T16:37:18.146Z,18.86
2023-05-17T16:39:45.971Z,18.91
2023-05-17T16:42:15.076Z,18.88
2023-05-17T16:44:42.924Z,18.83
2023-05-17T16:47:12.538Z,18.88
2023-05-17T16:49:41.174Z,18.80
2023-05-17T16:52:09.265Z,18.91
2023-05-17T16:54:38.651Z,18.95
2023-05-17T16:57:08.500Z,18.93
2023-05-17T16:59:36.460Z,18.94
2023-05-17T17:02:04.881Z,18.96
2023-05-17T17:04:34.097Z,18.89
2023-05-17T17:07:02.438Z,18.89
2023-05-17T17:09:30.316Z,18.90
2023-05-17T17:11:58.146Z,18.82
2023-05-17T17:14:26.087Z,18.61
2023-05-17T17:16:54.482Z,18.63
2023-05-17T17:19:22.744Z,18.61
2023-05-17T17:21:52.061Z,18.81
2023-05-17T17:24:20.282Z,18.84
2023-05-17T17:26:50.026Z,18.77
2023-05-17T17:29:17.861Z,18.82
2023-05-17T17:31:46.058Z,18.94
2023-05-17T17:34:13.903Z,18.80
2023-05-17T17:36:41.703Z,18.77
2023-05-17T17:39:14.622Z,18.92
2023-05-17T17:41:42.420Z,18.86
2023-05-17T17:44:10.441Z,18.67
2023-05-17T17:46:38.729Z,18.67
2023-05-17T17:49:06.568Z,18.55
2023-05-17T17:51:34.409Z,18.37
2023-05-17T17:54:04.199Z,18.35
2023-05-17T17:56:33.382Z,18.34
2023-05-17T17:59:01.213Z,18.34
2023-05-17T18:01:31.506Z,18.40
2023-05-17T18:04:00.228Z,18.38
2023-05-17T18:06:28.031Z,18.23
2023-05-17T18:08:57.857Z,18.26
2023-05-17T18:11:26.107Z,18.23
2023-05-17T18:13:56.614Z,18.33
2023-05-17T18:16:24.992Z,18.32
2023-05-17T18:18:52.836Z,18.15
2023-05-17T18:21:21.535Z,18.08
2023-05-17T18:23:49.378Z,18.19
2023-05-17T18:26:17.226Z,18.10
2023-05-17T18:28:45.078Z,18.04
2023-05-17T18:31:15.312Z,18.06
2023-05-17T18:33:43.110Z,17.99
2023-05-17T18:36:11.037Z,18.00
2023-05-17T18:38:39.301Z,17.93
2023-05-17T18:41:07.350Z,17.81
2023-05-17T18:43:35.212Z,17.82
2023-05-17T18:46:03.650Z,17.75
2023-05-17T18:48:35.994Z,17.82
2023-05-17T18:51:04.306Z,17.84
2023-05-17T18:53:32.098Z,17.84
2023-05-17T18:56:01.553Z,17.82
2023-05-17T18:58:29.673Z,17.88
2023-05-17T19:00:58.021Z,17.90
2023-05-17T19:03:26.003Z,17.84
2023-05-17T19:05:55.766Z,17.81
2023-05-17T19:08:23.610Z,17.82
2023-05-17T19:10:51.524Z,17.83
2023-05-17T19:13:20.037Z,17.82
2023-05-17T19:15:48.425Z,17.78
2023-05-17T19:18:16.434Z,17.77
2023-05-17T19:20:44.863Z,17.74
2023-05-17T19:23:14.122Z,17.71
2023-05-17T19:25:41.941Z,17.69
2023-05-17T19:28:10.696Z,17.70
2023-05-17T19:30:38.742Z,17.70
2023-05-17T19:33:06.765Z,17.67
2023-05-17T19:35:37.706Z,17.59
2023-05-17T19:38:05.559Z,17.46
2023-05-17T19:40:35.389Z,17.48
2023-05-17T19:43:04.118Z,17.45
2023-05-17T19:45:32.062Z,17.37
2023-05-17T19:48:00.261Z,17.36
2023-05-17T19:50:28.874Z,17.34
2023-05-17T19:52:56.882Z,17.31
2023-05-17T19:55:26.532Z,17.29
2023-05-17T19:57:56.165Z,17.30
2023-05-17T20:00:24.307Z,17.27
2023-05-17T20:02:52.327Z,17.26
2023-05-17T20:05:20.949Z,17.21
2023-05-17T20:07:48.855Z,17.18
2023-05-17T20:10:16.719Z,17.18
2023-05-17T20:12:45.149Z,17.19
2023-05-17T20:15:14.531Z,17.22
2023-05-17T20:17:42.502Z,17.22
2023-05-17T20:20:10.845Z,17.19
2023-05-17T20:22:41.082Z,17.18
2023-05-17T20:25:08.945Z,17.17
2023-05-17T20:27:37.124Z,17.14
2023-05-17T20:30:06.216Z,17.14
2023-05-17T20:32:35.772Z,17.14
2023-05-17T20:35:03.680Z,17.16
2023-05-17T20:37:31.538Z,17.14
2023-05-17T20:40:00.059Z,17.09
2023-05-17T20:42:29.045Z,17.05
2023-05-17T20:44:57.826Z,16.98
2023-05-17T20:47:26.404Z,16.98
2023-05-17T20:49:56.414Z,16.96
2023-05-17T20:52:38.201Z,16.92
2023-05-17T20:55:10.010Z,16.86
2023-05-17T20:57:37.904Z,16.79
2023-05-17T21:00:08.302Z,16.77
2023-05-17T21:02:36.769Z,16.74
2023-05-17T21:05:06.335Z,16.76
2023-05-17T21:07:34.943Z,16.75
2023-05-17T21:10:03.123Z,16.74
2023-05-17T21:12:31.166Z,16.75
2023-05-17T21:15:15.190Z,16.76
2023-05-17T21:17:44.848Z,16.75
2023-05-17T21:20:15.593Z,16.74
2023-05-17T21:22:44.293Z,16.72
2023-05-17T21:25:12.917Z,16.70
2023-05-17T21:27:40.973Z,16.61
2023-05-17T21:30:09.817Z,16.61
2023-05-17T21:32:38.388Z,16.57
2023-05-17T21:35:07.289Z,16.49
2023-05-17T21:37:39.189Z,16.47
2023-05-17T21:40:08.777Z,16.40
2023-05-17T21:42:36.913Z,16.38
2023-05-17T21:45:06.145Z,16.29
2023-05-17T21:47:35.852Z,16.22
2023-05-17T21:50:04.165Z,16.15
2023-05-17T21:52:32.580Z,16.13
2023-05-17T21:55:01.853Z,16.12
2023-05-17T21:57:30.170Z,16.09
2023-05-17T21:59:58.608Z,16.08
2023-05-17T22:02:26.805Z,16.06
2023-05-17T22:04:54.990Z,16.04
2023-05-17T22:07:23.522Z,16.04
2023-05-17T22:09:51.500Z,16.02
2023-05-17T22:12:25.850Z,16.01
2023-05-17T22:14:54.414Z,15.99
2023-05-17T22:17:29.550Z,15.96
2023-05-17T22:20:03.020Z,15.94
2023-05-17T22:22:33.309Z,15.92
2023-05-17T22:25:01.586Z,15.90
2023-05-17T22:27:30.927Z,15.87
2023-05-17T22:29:59.418Z,15.84
2023-05-17T22:32:27.480Z,15.79
2023-05-17T22:34:56.243Z,15.76
2023-05-17T22:37:24.880Z,15.74
2023-05-17T22:39:52.788Z,15.70
2023-05-17T22:42:21.045Z,15.64
2023-05-17T22:44:50.830Z,15.61
2023-05-17T22:47:22.666Z,15.55
2023-05-17T22:49:53.058Z,15.51
2023-05-17T22:52:21.808Z,15.47
2023-05-17T22:54:49.769Z,15.45
2023-05-17T22:57:17.853Z,15.41
2023-05-17T22:59:45.813Z,15.38
2023-05-17T23:02:15.017Z,15.35
2023-05-17T23:04:46.311Z,15.31
2023-05-17T23:07:15.059Z,15.28
2023-05-17T23:09:42.876Z,15.25
2023-05-17T23:12:14.618Z,15.22
2023-05-17T23:14:42.478Z,15.18
2023-05-17T23:17:10.479Z,15.15
2023-05-17T23:19:41.323Z,15.13
2023-05-17T23:22:10.668Z,15.10
2023-05-17T23:24:38.800Z,15.06
2023-05-17T23:27:10.495Z,15.02
2023-05-17T23:29:41.352Z,14.98
2023-05-17T23:32:09.372Z,14.94
2023-05-17T23:34:37.809Z,14.92
2023-05-17T23:37:07.013Z,14.87
2023-05-17T23:39:35.097Z,14.83
2023-05-17T23:42:03.221Z,14.79
2023-05-17T23:44:33.374Z,14.75
2023-05-17T23:47:01.445Z,14.72
2023-05-17T23:49:29.810Z,14.68
2023-05-17T23:51:57.934Z,14.65
2023-05-17T23:54:28.387Z,14.62
2023-05-17T23:56:57.569Z,14.57
2023-05-17T23:59:25.739Z,14.55
